Time;durP1;ratioP1;P1;durP2;ratioP2;P2;SDS_P1;SDS_P2;PMS_P1;PMS_P2;Temp;Humidity;BMP_temperature;BMP_pressure;BME280_temperature;BME280_humidity;BME280_pressure;Samples;Min_cycle;Max_cycle;Signal;HPM_P1;HPM_P2
2024/02/21 00:00:45;;;;;;;41.55;12.10;;;;;;;8.10;100.00;102039.75;5034552;28;20391;-78
2024/02/21 00:03:11;;;;;;;37.28;13.85;;;;;;;8.09;100.00;102035.53;5030343;28;20024;-78
2024/02/21 00:05:36;;;;;;;41.22;12.43;;;;;;;8.19;100.00;102031.34;5045385;28;20407;-78
2024/02/21 00:08:03;;;;;;;38.95;12.77;;;;;;;8.29;100.00;102021.19;5031023;28;20025;-78
2024/02/21 00:10:28;;;;;;;42.03;13.00;;;;;;;8.22;100.00;102025.16;5027980;28;20163;-78
2024/02/21 00:12:54;;;;;;;38.20;12.75;;;;;;;8.27;100.00;102012.69;5032253;28;20658;-78
2024/02/21 00:15:20;;;;;;;40.08;12.10;;;;;;;8.22;100.00;102007.88;5032652;28;20487;-78
2024/02/21 00:17:45;;;;;;;43.78;14.43;;;;;;;8.16;100.00;102019.47;5030665;28;20033;-78
2024/02/21 00:20:11;;;;;;;38.75;13.13;;;;;;;8.23;100.00;102017.28;5051362;28;20040;-78
2024/02/21 00:22:37;;;;;;;40.10;13.45;;;;;;;8.25;100.00;102010.25;5042497;28;20075;-78
2024/02/21 00:25:02;;;;;;;33.22;12.98;;;;;;;8.11;100.00;102006.06;5029831;28;20523;-78
2024/02/21 00:27:28;;;;;;;36.35;12.52;;;;;;;8.07;100.00;102002.06;5048123;28;20032;-78
2024/02/21 00:29:53;;;;;;;40.65;12.82;;;;;;;8.13;100.00;101990.44;5030856;28;20064;-78
2024/02/21 00:32:19;;;;;;;43.20;14.15;;;;;;;8.14;100.00;101984.38;5047812;28;20048;-78
2024/02/21 00:34:44;;;;;;;39.05;13.07;;;;;;;8.22;100.00;101974.28;5015850;28;20029;-78
2024/02/21 00:37:10;;;;;;;36.22;12.93;;;;;;;8.34;100.00;101988.91;5014600;28;20500;-78
2024/02/21 00:39:36;;;;;;;30.30;11.50;;;;;;;8.23;100.00;101983.69;5048307;28;20048;-78
2024/02/21 00:42:02;;;;;;;36.83;12.18;;;;;;;8.21;100.00;101988.13;5045842;28;20032;-78
2024/02/21 00:44:28;;;;;;;36.38;12.05;;;;;;;8.18;100.00;101989.19;5031734;28;20029;-78
2024/02/21 00:46:53;;;;;;;44.17;12.70;;;;;;;8.24;100.00;101981.94;5010420;28;20049;-78
2024/02/21 00:49:18;;;;;;;31.23;13.25;;;;;;;8.24;100.00;101977.56;5027522;28;20377;-78
2024/02/21 00:51:44;;;;;;;31.67;11.95;;;;;;;8.24;100.00;101979.34;5030121;28;20491;-78
2024/02/21 00:54:09;;;;;;;34.47;12.35;;;;;;;8.35;100.00;101982.78;5031440;28;20036;-78
2024/02/21 00:56:35;;;;;;;30.25;10.98;;;;;;;8.17;100.00;101987.56;5042548;28;20423;-78
2024/02/21 00:59:00;;;;;;;31.77;10.85;;;;;;;8.16;100.00;101972.16;5049353;28;20044;-78
2024/02/21 01:01:26;;;;;;;41.17;12.15;;;;;;;8.12;100.00;101968.16;5025950;28;20060;-78
2024/02/21 01:03:54;;;;;;;26.58;10.93;;;;;;;8.29;100.00;101965.16;5029662;28;20083;-78
2024/02/21 01:06:20;;;;;;;37.38;11.57;;;;;;;8.26;100.00;101970.53;5027723;28;20037;-78
2024/02/21 01:08:47;;;;;;;31.75;10.98;;;;;;;8.18;100.00;101972.88;5046254;28;20024;-78
2024/02/21 01:11:13;;;;;;;28.80;11.43;;;;;;;8.10;100.00;101964.81;5024412;28;20480;-78
2024/02/21 01:13:39;;;;;;;30.58;11.38;;;;;;;8.18;100.00;101963.34;5029321;28;20095;-78
2024/02/21 01:16:06;;;;;;;33.03;11.88;;;;;;;8.18;100.00;101962.53;4999915;28;20045;-78
2024/02/21 01:18:34;;;;;;;37.42;12.40;;;;;;;8.14;100.00;101943.84;5026954;28;20928;-78
2024/02/21 01:21:00;;;;;;;38.90;11.60;;;;;;;8.11;100.00;101941.47;5048328;28;20037;-78
2024/02/21 01:23:25;;;;;;;43.42;11.75;;;;;;;8.15;100.00;101940.31;5015059;28;20025;-78
2024/02/21 01:25:51;;;;;;;41.85;12.48;;;;;;;8.18;100.00;101939.28;5027434;28;20473;-78
2024/02/21 01:28:17;;;;;;;33.92;11.38;;;;;;;8.21;100.00;101935.63;5030560;28;20115;-78
2024/02/21 01:30:43;;;;;;;39.60;11.02;;;;;;;8.23;100.00;101932.03;5043967;28;20036;-78
2024/02/21 01:33:09;;;;;;;31.33;11.00;;;;;;;8.17;100.00;101928.13;5049278;28;20086;-78
2024/02/21 01:35:35;;;;;;;37.85;11.50;;;;;;;8.23;100.00;101919.09;5003094;28;20053;-78
2024/02/21 01:38:01;;;;;;;30.73;11.48;;;;;;;8.13;100.00;101924.09;5016422;28;20689;-78
2024/02/21 01:40:26;;;;;;;34.05;11.23;;;;;;;8.08;100.00;101909.88;5009618;28;20111;-78
2024/02/21 01:42:54;;;;;;;35.30;10.45;;;;;;;8.13;100.00;101910.34;5028357;28;20021;-78
2024/02/21 01:45:20;;;;;;;42.17;11.23;;;;;;;8.06;100.00;101915.16;5020863;28;20036;-78
2024/02/21 01:47:46;;;;;;;31.20;10.90;;;;;;;8.10;100.00;101902.81;5029897;28;20013;-78
2024/02/21 01:50:14;;;;;;;35.92;10.52;;;;;;;8.15;100.00;101911.88;5048454;28;20735;-78
2024/02/21 01:52:39;;;;;;;24.80;10.57;;;;;;;8.10;100.00;101911.41;5039561;28;20135;-78
2024/02/21 01:55:06;;;;;;;33.83;10.25;;;;;;;8.08;100.00;101909.88;5047254;28;20055;-78
2024/02/21 01:57:32;;;;;;;37.83;11.23;;;;;;;8.05;100.00;101903.19;5026091;28;20149;-78
2024/02/21 01:59:57;;;;;;;35.53;11.27;;;;;;;8.01;100.00;101901.75;5029993;28;20457;-79
2024/02/21 02:02:23;;;;;;;30.42;10.15;;;;;;;8.05;100.00;101890.25;5029430;28;20683;-78
2024/02/21 02:04:49;;;;;;;37.47;12.07;;;;;;;8.01;100.00;101890.59;5046341;28;20028;-78
2024/02/21 02:07:14;;;;;;;34.75;11.48;;;;;;;7.94;100.00;101887.63;5031129;28;20047;-78
2024/02/21 02:09:40;;;;;;;34.88;11.48;;;;;;;7.97;100.00;101877.09;5013015;28;20048;-78
2024/02/21 02:12:05;;;;;;;32.30;10.88;;;;;;;8.14;100.00;101873.25;5028606;28;20072;-78
2024/02/21 02:14:31;;;;;;;27.48;10.95;;;;;;;8.05;100.00;101869.59;5028625;28;20029;-78
2024/02/21 02:16:56;;;;;;;35.88;11.77;;;;;;;8.02;100.00;101862.06;5015371;28;20036;-78
2024/02/21 02:19:21;;;;;;;27.58;9.95;;;;;;;7.98;100.00;101855.47;5030271;28;20029;-78
2024/02/21 02:21:55;;;;;;;27.00;10.32;;;;;;;7.98;100.00;101863.22;5023890;28;20037;-78
2024/02/21 02:24:23;;;;;;;32.35;11.13;;;;;;;7.98;100.00;101847.72;5025216;28;20060;-78
2024/02/21 02:26:49;;;;;;;33.80;11.07;;;;;;;7.98;100.00;101845.16;5048118;28;20044;-78
2024/02/21 02:29:14;;;;;;;39.10;11.38;;;;;;;7.92;100.00;101854.16;5050382;28;20411;-78
2024/02/21 02:31:40;;;;;;;36.15;11.73;;;;;;;7.91;100.00;101862.03;5045546;28;20034;-78
2024/02/21 02:34:05;;;;;;;24.25;9.88;;;;;;;7.89;100.00;101863.91;5043489;28;20021;-78
2024/02/21 02:36:34;;;;;;;34.58;10.60;;;;;;;7.87;100.00;101858.03;5017079;28;20045;-78
2024/02/21 02:38:59;;;;;;;31.35;11.23;;;;;;;7.99;100.00;101862.31;5028183;28;20059;-78
2024/02/21 02:41:25;;;;;;;24.00;10.25;;;;;;;7.98;100.00;101856.28;5045219;28;20041;-78
2024/02/21 02:43:50;;;;;;;31.02;11.15;;;;;;;8.06;100.00;101863.50;5043706;28;20037;-78
2024/02/21 02:46:16;;;;;;;26.65;9.35;;;;;;;8.07;100.00;101859.97;4993819;28;20030;-78
2024/02/21 02:48:41;;;;;;;27.13;9.95;;;;;;;8.01;100.00;101855.25;5033554;28;20056;-78
2024/02/21 02:51:07;;;;;;;32.05;10.02;;;;;;;8.04;100.00;101842.09;5031410;28;20408;-78
2024/02/21 02:53:32;;;;;;;33.30;11.00;;;;;;;8.14;100.00;101843.06;5016116;28;20590;-78
2024/02/21 02:55:58;;;;;;;32.65;10.77;;;;;;;8.08;100.00;101825.47;5046857;28;20040;-78
2024/02/21 02:58:23;;;;;;;27.17;9.57;;;;;;;8.07;100.00;101828.97;5052998;28;20025;-78
2024/02/21 03:00:49;;;;;;;37.17;10.68;;;;;;;8.10;100.00;101821.00;5033660;28;20091;-78
2024/02/21 03:03:14;;;;;;;27.42;11.90;;;;;;;7.93;100.00;101814.50;5020669;28;20029;-78
2024/02/21 03:05:40;;;;;;;28.52;11.23;;;;;;;8.05;100.00;101807.59;5030669;28;20060;-78
2024/02/21 03:08:06;;;;;;;36.60;11.95;;;;;;;7.99;100.00;101808.88;5033770;28;20037;-78
2024/02/21 03:10:35;;;;;;;33.88;11.20;;;;;;;7.94;100.00;101805.81;5019871;28;20051;-78
2024/02/21 03:13:00;;;;;;;48.15;15.88;;;;;;;7.93;100.00;101803.31;5047967;28;20480;-78
2024/02/21 03:15:26;;;;;;;30.40;10.95;;;;;;;7.91;100.00;101800.03;5047003;28;20032;-78
2024/02/21 03:17:51;;;;;;;34.22;11.07;;;;;;;7.92;100.00;101802.50;5051738;28;20033;-78
2024/02/21 03:20:17;;;;;;;28.23;10.48;;;;;;;7.80;100.00;101795.69;5031467;28;20025;-78
2024/02/21 03:22:43;;;;;;;35.03;10.60;;;;;;;7.78;100.00;101782.06;5027882;28;20048;-78
2024/02/21 03:25:09;;;;;;;23.02;9.77;;;;;;;7.73;100.00;101786.75;5047484;28;20088;-78
2024/02/21 03:27:35;;;;;;;34.55;12.23;;;;;;;7.90;100.00;101790.66;5031824;28;20048;-78
2024/02/21 03:30:01;;;;;;;31.35;10.30;;;;;;;7.91;100.00;101787.97;5016067;28;20466;-78
2024/02/21 03:32:28;;;;;;;31.60;10.90;;;;;;;7.94;100.00;101785.13;5048284;28;20120;-78
2024/02/21 03:34:53;;;;;;;34.08;12.77;;;;;;;7.83;100.00;101792.06;5046279;28;20108;-78
2024/02/21 03:37:19;;;;;;;34.60;10.90;;;;;;;7.92;100.00;101788.78;5015489;28;20128;-78
2024/02/21 03:39:44;;;;;;;27.98;9.25;;;;;;;7.89;100.00;101778.69;5014448;28;20559;-78
2024/02/21 03:42:10;;;;;;;33.45;10.57;;;;;;;7.86;100.00;101782.31;5012114;28;20036;-79
2024/02/21 03:44:36;;;;;;;27.10;9.00;;;;;;;7.79;100.00;101775.97;5032722;28;20033;-78
2024/02/21 03:47:02;;;;;;;31.25;9.82;;;;;;;7.75;100.00;101769.38;5048081;28;20033;-78
2024/02/21 03:49:27;;;;;;;25.75;9.38;;;;;;;7.79;100.00;101783.72;5013988;28;20028;-78
2024/02/21 03:51:53;;;;;;;27.63;10.23;;;;;;;7.85;100.00;101780.66;5028974;28;20041;-78
2024/02/21 03:54:19;;;;;;;30.80;9.30;;;;;;;7.83;100.00;101779.13;5048245;28;20306;-78
2024/02/21 03:56:44;;;;;;;28.30;9.55;;;;;;;7.74;100.00;101778.06;5010410;28;20045;-78
2024/02/21 03:59:10;;;;;;;30.27;9.50;;;;;;;7.83;100.00;101771.41;5027045;28;20037;-78
2024/02/21 04:01:35;;;;;;;28.92;10.68;;;;;;;7.80;100.00;101770.69;5030418;28;20041;-78
2024/02/21 04:04:01;;;;;;;28.25;9.65;;;;;;;7.81;100.00;101771.50;5029815;28;20025;-78
2024/02/21 04:06:27;;;;;;;25.90;9.18;;;;;;;7.78;100.00;101774.31;5048413;28;20033;-78
2024/02/21 04:08:52;;;;;;;29.08;9.02;;;;;;;7.76;100.00;101776.19;5028712;28;20111;-78
2024/02/21 04:11:18;;;;;;;26.50;9.85;;;;;;;7.82;100.00;101757.66;5029478;28;20037;-78
2024/02/21 04:13:45;;;;;;;25.80;9.13;;;;;;;7.84;100.00;101758.38;5011974;28;20025;-79
2024/02/21 04:16:10;;;;;;;19.77;8.13;;;;;;;7.74;100.00;101752.22;5045764;28;20033;-78
2024/02/21 04:18:36;;;;;;;29.85;9.57;;;;;;;7.71;100.00;101748.13;5032054;28;20078;-78
2024/02/21 04:21:01;;;;;;;25.88;9.70;;;;;;;7.73;100.00;101743.69;5031727;28;20048;-78
2024/02/21 04:23:27;;;;;;;26.25;9.13;;;;;;;7.66;100.00;101739.09;5032797;28;20079;-78
2024/02/21 04:25:52;;;;;;;21.90;8.52;;;;;;;7.73;100.00;101741.09;5033486;28;20048;-78
2024/02/21 04:28:18;;;;;;;25.17;9.93;;;;;;;7.71;100.00;101749.91;5020665;28;20039;-78
2024/02/21 04:30:43;;;;;;;34.33;11.50;;;;;;;7.71;100.00;101747.31;5031286;28;20044;-78
2024/02/21 04:33:08;;;;;;;28.58;10.98;;;;;;;7.69;100.00;101747.41;5030569;28;20029;-78
2024/02/21 04:35:36;;;;;;;25.80;10.07;;;;;;;7.74;100.00;101747.91;5013059;28;20495;-78
2024/02/21 04:38:01;;;;;;;27.40;9.15;;;;;;;7.80;100.00;101741.47;5032026;28;20035;-78
2024/02/21 04:40:27;;;;;;;22.88;9.10;;;;;;;7.78;100.00;101741.56;5031798;28;20025;-78
2024/02/21 04:42:52;;;;;;;34.50;10.38;;;;;;;7.77;100.00;101739.09;5013229;28;20440;-77
2024/02/21 04:45:18;;;;;;;35.53;10.38;;;;;;;7.68;100.00;101742.38;5046688;28;20111;-78
2024/02/21 04:47:44;;;;;;;31.15;10.43;;;;;;;7.67;100.00;101735.56;5030449;28;20028;-78
2024/02/21 04:50:09;;;;;;;28.10;9.98;;;;;;;7.70;100.00;101745.66;5050744;28;20116;-78
2024/02/21 04:52:35;;;;;;;23.55;8.50;;;;;;;7.75;100.00;101744.38;5030265;28;20043;-78
2024/02/21 04:55:00;;;;;;;22.42;8.82;;;;;;;7.69;100.00;101744.84;5032016;28;20057;-78
2024/02/21 04:57:26;;;;;;;32.33;9.23;;;;;;;7.74;100.00;101741.91;5015505;28;20037;-78
2024/02/21 04:59:51;;;;;;;22.88;8.18;;;;;;;7.67;100.00;101735.56;5027178;28;20030;-78
2024/02/21 05:02:17;;;;;;;29.55;8.35;;;;;;;7.73;100.00;101741.09;5047059;28;20094;-78
2024/02/21 05:04:42;;;;;;;25.02;8.88;;;;;;;7.79;100.00;101750.13;5046751;28;20039;-78
2024/02/21 05:07:08;;;;;;;25.08;8.68;;;;;;;7.68;100.00;101747.53;5045667;28;20033;-79
2024/02/21 05:09:33;;;;;;;27.58;8.43;;;;;;;7.67;100.00;101738.97;5029903;28;20515;-78
2024/02/21 05:11:59;;;;;;;33.30;9.82;;;;;;;7.78;100.00;101740.75;5047249;28;20499;-78
2024/02/21 05:14:26;;;;;;;23.40;8.15;;;;;;;7.74;100.00;101734.16;5029267;28;20079;-78
2024/02/21 05:16:52;;;;;;;20.77;7.82;;;;;;;7.74;100.00;101734.16;5013362;28;20041;-78
2024/02/21 05:19:18;;;;;;;22.13;8.40;;;;;;;7.71;100.00;101739.56;5046716;28;20032;-78
2024/02/21 05:21:43;;;;;;;25.45;8.32;;;;;;;7.71;100.00;101737.00;5032166;28;20376;-78
2024/02/21 05:24:08;;;;;;;24.05;8.55;;;;;;;7.67;100.00;101727.84;5023175;28;20436;-79
2024/02/21 05:26:34;;;;;;;25.38;8.38;;;;;;;7.66;100.00;101723.59;5030050;28;20036;-78
2024/02/21 05:28:59;;;;;;;31.42;7.70;;;;;;;7.63;100.00;101724.66;5030765;28;20037;-78
2024/02/21 05:31:25;;;;;;;28.42;8.43;;;;;;;7.83;100.00;101714.59;5048189;28;20075;-78
2024/02/21 05:33:50;;;;;;;25.75;7.93;;;;;;;7.73;100.00;101720.44;5028860;28;20045;-78
2024/02/21 05:36:16;;;;;;;32.42;8.93;;;;;;;7.70;100.00;101723.22;5030005;28;20033;-78
2024/02/21 05:38:41;;;;;;;20.77;8.20;;;;;;;7.69;100.00;101721.59;5031146;28;20483;-78
2024/02/21 05:41:07;;;;;;;24.83;7.85;;;;;;;7.68;100.00;101721.72;5043624;28;20041;-78
2024/02/21 05:43:33;;;;;;;23.50;8.35;;;;;;;7.62;100.00;101717.03;5047364;28;20025;-78
2024/02/21 05:45:58;;;;;;;25.58;8.65;;;;;;;7.61;100.00;101718.78;5025052;28;20055;-78
2024/02/21 05:48:24;;;;;;;29.60;8.90;;;;;;;7.71;100.00;101717.16;5045547;28;20731;-78
2024/02/21 05:50:50;;;;;;;21.33;7.97;;;;;;;7.62;100.00;101722.19;5046151;28;20029;-78
2024/02/21 05:53:15;;;;;;;22.30;8.57;;;;;;;7.68;100.00;101716.56;5011459;28;20034;-78
2024/02/21 05:55:41;;;;;;;29.70;7.88;;;;;;;7.65;100.00;101707.28;5044550;28;20511;-78
2024/02/21 05:58:06;;;;;;;25.40;8.05;;;;;;;7.65;100.00;101701.28;5047909;28;20482;-78
2024/02/21 06:00:33;;;;;;;25.95;7.63;;;;;;;7.68;100.00;101698.47;5045337;28;20049;-78
2024/02/21 06:02:58;;;;;;;28.75;8.00;;;;;;;7.80;100.00;101692.41;5030370;28;20626;-78
2024/02/21 06:05:24;;;;;;;25.15;8.55;;;;;;;7.79;100.00;101686.41;5047508;28;20108;-78
2024/02/21 06:07:49;;;;;;;23.30;7.47;;;;;;;7.75;100.00;101684.19;5034444;28;20029;-78
2024/02/21 06:10:15;;;;;;;20.30;7.38;;;;;;;7.78;100.00;101686.53;5011906;28;20040;-78
2024/02/21 06:12:40;;;;;;;25.20;7.88;;;;;;;7.69;100.00;101677.72;5015286;28;20025;-79
2024/02/21 06:15:06;;;;;;;22.52;8.15;;;;;;;7.68;100.00;101677.81;5030957;28;20025;-78
2024/02/21 06:17:31;;;;;;;27.38;8.43;;;;;;;7.66;100.00;101680.53;5050471;28;20040;-78
2024/02/21 06:19:57;;;;;;;21.35;7.65;;;;;;;7.74;100.00;101675.63;5051490;28;20063;-79
2024/02/21 06:22:22;;;;;;;20.92;7.93;;;;;;;7.69;100.00;101676.91;5034538;28;20041;-78
2024/02/21 06:24:48;;;;;;;18.08;7.03;;;;;;;7.58;100.00;101670.78;5034245;28;20025;-78
2024/02/21 06:27:16;;;;;;;21.52;7.32;;;;;;;7.60;100.00;101668.91;5034370;28;20040;-79
2024/02/21 06:29:41;;;;;;;23.08;7.25;;;;;;;7.63;100.00;101669.59;5016601;28;20054;-78
2024/02/21 06:32:07;;;;;;;21.05;7.70;;;;;;;7.60;100.00;101666.31;5019943;28;20450;-79
2024/02/21 06:34:32;;;;;;;21.45;6.78;;;;;;;7.60;100.00;101658.56;5032958;28;20083;-78
2024/02/21 06:36:58;;;;;;;24.42;7.85;;;;;;;7.60;100.00;101648.25;5049481;28;20041;-78
2024/02/21 06:39:23;;;;;;;20.90;7.53;;;;;;;7.65;100.00;101645.34;5024206;28;20479;-78
2024/02/21 06:41:50;;;;;;;24.08;6.75;;;;;;;7.77;100.00;101653.91;5031603;28;20044;-78
2024/02/21 06:44:16;;;;;;;22.75;7.18;;;;;;;7.69;100.00;101644.16;5017653;28;20033;-77
2024/02/21 06:46:42;;;;;;;19.52;6.55;;;;;;;7.67;100.00;101645.22;5032957;28;20124;-78
2024/02/21 06:49:07;;;;;;;20.50;6.75;;;;;;;7.63;100.00;101642.06;5051384;28;20381;-78
2024/02/21 06:51:34;;;;;;;30.25;7.93;;;;;;;7.78;100.00;101643.47;5031074;28;20064;-78
2024/02/21 06:53:59;;;;;;;17.70;7.35;;;;;;;7.78;100.00;101640.88;5050787;28;20041;-78
2024/02/21 06:56:28;;;;;;;19.38;7.85;;;;;;;7.69;100.00;101641.56;5029824;28;20042;-78
2024/02/21 06:58:57;;;;;;;15.98;7.25;;;;;;;7.79;100.00;101631.38;5029055;28;20025;-78
2024/02/21 07:01:24;;;;;;;22.90;7.55;;;;;;;7.83;100.00;101643.09;5018216;28;20037;-78
2024/02/21 07:03:49;;;;;;;22.73;7.00;;;;;;;7.72;100.00;101632.75;5047720;28;20122;-78
2024/02/21 07:06:15;;;;;;;20.05;7.10;;;;;;;7.75;100.00;101629.97;5031612;28;20080;-79
2024/02/21 07:08:40;;;;;;;17.02;7.68;;;;;;;7.72;100.00;101640.50;5033823;28;20033;-78
2024/02/21 07:11:06;;;;;;;24.63;6.65;;;;;;;7.73;100.00;101655.06;5030424;28;20041;-78
2024/02/21 07:13:32;;;;;;;19.45;7.47;;;;;;;7.65;100.00;101647.06;5049484;28;20045;-78
2024/02/21 07:15:58;;;;;;;19.48;7.03;;;;;;;7.80;100.00;101649.31;5032843;28;20102;-78
2024/02/21 07:18:25;;;;;;;17.90;5.78;;;;;;;7.80;100.00;101653.69;5034598;28;21237;-78
2024/02/21 07:20:51;;;;;;;13.82;5.88;;;;;;;7.77;100.00;101651.31;5028725;28;20063;-78
2024/02/21 07:23:16;;;;;;;13.25;5.97;;;;;;;7.82;100.00;101649.22;5048786;28;20068;-78
2024/02/21 07:25:42;;;;;;;24.30;5.38;;;;;;;7.84;100.00;101654.28;5049239;28;20041;-78
2024/02/21 07:28:08;;;;;;;17.27;5.60;;;;;;;7.68;100.00;101646.84;5031423;28;20025;-78
2024/02/21 07:30:34;;;;;;;22.05;5.63;;;;;;;7.67;100.00;101648.63;5033564;28;20089;-78
2024/02/21 07:32:59;;;;;;;16.42;6.25;;;;;;;7.74;100.00;101644.63;5050965;28;20032;-78
2024/02/21 07:35:24;;;;;;;18.15;5.82;;;;;;;7.70;100.00;101640.63;5050383;28;20041;-78
2024/02/21 07:37:50;;;;;;;14.65;5.55;;;;;;;7.78;100.00;101645.22;5034173;28;20028;-78
2024/02/21 07:40:16;;;;;;;19.73;6.13;;;;;;;7.79;100.00;101649.44;5032945;28;20033;-78
2024/02/21 07:42:43;;;;;;;19.45;6.38;;;;;;;7.65;100.00;101640.16;5047938;28;20083;-78
2024/02/21 07:45:10;;;;;;;16.90;6.22;;;;;;;7.85;100.00;101645.56;5035663;28;20033;-78
2024/02/21 07:47:35;;;;;;;22.13;6.05;;;;;;;7.87;100.00;101635.94;5031909;28;20403;-78
2024/02/21 07:50:02;;;;;;;22.55;6.75;;;;;;;7.79;100.00;101628.78;5031072;28;20039;-78
2024/02/21 07:52:27;;;;;;;24.20;6.63;;;;;;;7.76;100.00;101629.84;5028647;28;20033;-78
2024/02/21 07:54:53;;;;;;;19.42;6.88;;;;;;;7.70;100.00;101622.56;5050454;28;20442;-79
2024/02/21 07:57:18;;;;;;;22.48;6.35;;;;;;;7.66;100.00;101626.31;5017797;28;20033;-78
2024/02/21 07:59:44;;;;;;;20.58;8.00;;;;;;;7.63;100.00;101618.81;5031643;28;20040;-78
2024/02/21 08:02:10;;;;;;;18.45;6.25;;;;;;;7.77;100.00;101617.75;5045097;28;20047;-78
2024/02/21 08:04:35;;;;;;;20.00;7.25;;;;;;;7.80;100.00;101617.53;5033021;28;20025;-78
2024/02/21 08:07:02;;;;;;;22.45;5.90;;;;;;;7.73;100.00;101606.84;5014795;28;20043;-78
2024/02/21 08:09:28;;;;;;;24.75;6.82;;;;;;;7.73;100.00;101612.00;5032644;28;20033;-78
2024/02/21 08:11:57;;;;;;;20.48;5.20;;;;;;;7.69;100.00;101596.88;5047336;28;20035;-78
2024/02/21 08:14:24;;;;;;;27.15;6.70;;;;;;;7.72;100.00;101587.13;5033195;28;20064;-78
2024/02/21 08:16:50;;;;;;;20.63;5.72;;;;;;;7.70;100.00;101583.00;5030895;28;20060;-78
2024/02/21 08:19:16;;;;;;;17.98;5.25;;;;;;;7.66;100.00;101566.94;5050495;28;20435;-78
2024/02/21 08:21:42;;;;;;;22.33;5.45;;;;;;;7.73;100.00;101560.38;5016186;28;20048;-78
2024/02/21 08:24:07;;;;;;;19.90;5.55;;;;;;;7.72;100.00;101561.31;5016945;28;20036;-78
2024/02/21 08:26:33;;;;;;;12.90;5.40;;;;;;;7.78;100.00;101562.59;5034352;28;20081;-78
2024/02/21 08:29:01;;;;;;;22.58;5.45;;;;;;;7.82;100.00;101560.56;5031485;28;20084;-78
2024/02/21 08:31:34;;;;;;;26.20;5.85;;;;;;;7.89;98.91;101554.00;5028331;28;20037;-78
2024/02/21 08:34:03;;;;;;;24.77;5.53;;;;;;;7.89;100.00;101557.44;5033305;28;20041;-77
2024/02/21 08:36:30;;;;;;;19.50;5.53;;;;;;;7.84;99.45;101556.97;5042095;28;20048;-78
2024/02/21 08:38:56;;;;;;;16.73;5.45;;;;;;;7.86;99.50;101549.09;5027096;28;20032;-78
2024/02/21 08:41:23;;;;;;;18.48;5.10;;;;;;;7.87;98.81;101546.38;5011981;28;20100;-77
2024/02/21 08:43:50;;;;;;;15.90;5.20;;;;;;;7.87;98.47;101546.38;5026151;28;20034;-78
2024/02/21 08:46:16;;;;;;;14.35;5.07;;;;;;;7.98;98.03;101543.78;5047288;28;20032;-77
2024/02/21 08:48:41;;;;;;;14.45;4.82;;;;;;;8.08;97.06;101543.88;5030699;28;20498;-78
2024/02/21 08:51:07;;;;;;;16.00;5.10;;;;;;;8.07;96.71;101523.34;5014349;28;20033;-78
2024/02/21 08:53:32;;;;;;;20.13;5.85;;;;;;;8.00;98.28;101525.56;5032914;28;20040;-78
2024/02/21 08:55:58;;;;;;;18.38;6.10;;;;;;;7.94;97.39;101526.06;5044955;28;20056;-78
2024/02/21 08:58:26;;;;;;;15.82;4.53;;;;;;;8.05;98.01;101522.66;5049160;28;20043;-78
2024/02/21 09:00:52;;;;;;;13.05;4.80;;;;;;;8.08;96.79;101506.88;5047966;28;20045;-78
2024/02/21 09:03:19;;;;;;;12.20;4.47;;;;;;;8.13;96.43;101507.34;5033192;28;20119;-78
2024/02/21 09:05:45;;;;;;;11.68;3.88;;;;;;;8.07;97.26;101513.00;5011394;28;20428;-78
2024/02/21 09:08:11;;;;;;;21.83;5.05;;;;;;;8.17;95.55;101503.56;5033819;28;20040;-78
2024/02/21 09:10:36;;;;;;;12.10;4.78;;;;;;;8.07;95.30;101505.25;5043914;28;20041;-78
2024/02/21 09:13:03;;;;;;;18.77;5.05;;;;;;;8.15;93.94;101501.09;5047268;28;20040;-78
2024/02/21 09:15:29;;;;;;;17.92;4.63;;;;;;;8.11;94.45;101499.72;5009206;28;20055;-78
2024/02/21 09:17:54;;;;;;;17.90;5.65;;;;;;;8.10;94.91;101487.75;5047878;28;20059;-78
2024/02/21 09:20:19;;;;;;;20.45;4.93;;;;;;;8.25;93.86;101490.03;5046246;28;20021;-77
2024/02/21 09:22:45;;;;;;;14.90;4.63;;;;;;;8.30;93.22;101483.53;5028387;28;20033;-78
2024/02/21 09:25:11;;;;;;;14.10;3.75;;;;;;;8.29;93.16;101479.34;5031951;28;20029;-78
2024/02/21 09:27:38;;;;;;;17.70;4.53;;;;;;;8.27;92.41;101478.66;5012649;28;20040;-77
2024/02/21 09:30:05;;;;;;;12.90;4.03;;;;;;;8.30;93.34;101472.41;5012390;28;20032;-78
2024/02/21 09:32:30;;;;;;;11.82;3.38;;;;;;;8.33;92.59;101469.56;5028343;28;20037;-78
2024/02/21 09:34:56;;;;;;;15.63;4.10;;;;;;;8.26;93.63;101460.69;5047370;28;20053;-78
2024/02/21 09:37:21;;;;;;;17.52;3.80;;;;;;;8.31;93.00;101467.09;5025896;28;20040;-78
2024/02/21 09:39:47;;;;;;;10.02;3.75;;;;;;;8.37;91.08;101451.09;5011545;28;20399;-78
2024/02/21 09:42:17;;;;;;;13.98;3.47;;;;;;;8.35;92.15;101447.00;5033624;28;20033;-78
2024/02/21 09:44:45;;;;;;;14.27;3.70;;;;;;;8.43;90.74;101439.47;5028024;28;20035;-78
2024/02/21 09:47:22;;;;;;;14.48;3.88;;;;;;;8.53;91.53;101445.53;5028575;28;20075;-77
2024/02/21 09:49:48;;;;;;;13.65;3.47;;;;;;;8.57;90.01;101440.94;5047785;28;20047;-78
2024/02/21 09:52:15;;;;;;;13.55;3.30;;;;;;;8.61;90.52;101447.47;5045703;28;20037;-78
2024/02/21 09:54:44;;;;;;;8.82;3.45;;;;;;;8.61;89.97;101431.97;5030370;28;20511;-78
2024/02/21 09:57:10;;;;;;;10.48;3.05;;;;;;;8.73;88.62;101440.47;5029524;28;20040;-78
2024/02/21 09:59:35;;;;;;;16.92;3.55;;;;;;;8.76;89.32;101443.63;5028689;28;20025;-78
2024/02/21 10:02:01;;;;;;;13.82;3.40;;;;;;;8.66;90.27;101437.56;5032079;28;20956;-78
2024/02/21 10:04:27;;;;;;;15.00;3.42;;;;;;;8.65;90.65;101438.53;5010416;28;20468;-78
2024/02/21 10:06:56;;;;;;;12.07;3.67;;;;;;;8.85;89.43;101434.25;5030200;28;20045;-78
2024/02/21 10:09:28;;;;;;;9.85;3.80;;;;;;;8.74;89.26;101435.16;5050689;28;20072;-78
2024/02/21 10:11:55;;;;;;;10.95;3.05;;;;;;;8.85;88.96;101417.91;5029539;28;20033;-78
2024/02/21 10:14:21;;;;;;;15.95;3.25;;;;;;;8.88;89.64;101415.09;5047590;28;20033;-78
2024/02/21 10:16:58;;;;;;;11.95;3.53;;;;;;;8.98;88.79;101415.94;5025016;28;20079;-78
2024/02/21 10:19:24;;;;;;;8.85;3.60;;;;;;;8.95;88.08;101408.44;5030768;28;20036;-78
2024/02/21 10:22:01;;;;;;;16.23;3.60;;;;;;;9.05;87.78;101408.47;5043474;28;20036;-76
2024/02/21 10:24:28;;;;;;;14.05;3.35;;;;;;;8.97;88.34;101398.78;5026738;28;20021;-78
2024/02/21 10:27:04;;;;;;;13.48;3.47;;;;;;;9.25;87.79;101401.56;5011357;28;20053;-77
2024/02/21 10:29:32;;;;;;;9.88;3.38;;;;;;;9.22;86.86;101394.09;5043312;28;20045;-77
2024/02/21 10:32:04;;;;;;;8.88;3.40;;;;;;;9.18;87.71;101382.38;5016029;28;20099;-77
2024/02/21 10:34:30;;;;;;;11.00;3.85;;;;;;;9.27;86.58;101381.59;5043480;28;20377;-78
2024/02/21 10:37:06;;;;;;;15.57;3.67;;;;;;;9.37;85.14;101372.06;5029593;28;20091;-78
2024/02/21 10:39:33;;;;;;;14.45;3.70;;;;;;;9.40;86.07;101373.53;5048335;28;20894;-78
2024/02/21 10:42:05;;;;;;;13.02;3.08;;;;;;;9.25;85.84;101360.16;5013090;28;20037;-76
2024/02/21 10:44:33;;;;;;;13.73;4.20;;;;;;;9.25;86.35;101350.66;5030447;28;20036;-77
2024/02/21 10:46:59;;;;;;;10.65;3.53;;;;;;;9.30;86.25;101348.47;5024733;28;20127;-78
2024/02/21 10:49:29;;;;;;;9.02;3.50;;;;;;;9.45;85.37;101348.88;5024000;28;20047;-77
2024/02/21 10:52:10;;;;;;;13.63;3.50;;;;;;;9.49;84.94;101333.91;5027446;28;20103;-77
2024/02/21 10:54:50;;;;;;;9.60;3.00;;;;;;;9.42;85.54;101343.16;5010679;28;20041;-77
2024/02/21 10:57:17;;;;;;;14.65;3.50;;;;;;;9.53;85.41;101332.69;5012278;28;20041;-77
2024/02/21 10:59:45;;;;;;;11.23;2.95;;;;;;;9.61;83.92;101316.50;5030364;28;20064;-78
2024/02/21 11:02:10;;;;;;;9.35;3.55;;;;;;;9.67;83.84;101305.56;5050642;28;20032;-78
2024/02/21 11:04:37;;;;;;;8.20;2.90;;;;;;;9.82;84.60;101290.44;5013886;28;20168;-78
2024/02/21 11:07:04;;;;;;;13.77;3.35;;;;;;;9.66;82.98;101280.63;5051199;28;20090;-77
2024/02/21 11:09:34;;;;;;;13.57;3.58;;;;;;;9.74;84.47;101276.41;5054637;28;20479;-77
2024/02/21 11:12:04;;;;;;;10.90;3.75;;;;;;;9.81;82.59;101262.88;5035292;28;20041;-78